sensor_id;sensor_type;location;lat;lon;timestamp;pressure;altitude;pressure_sealevel;temperature;humidity
34566;BME280;20803;42.676;26.348;2024-02-15T00:00:27;99028.75;;;8.31;75.34
34566;BME280;20803;42.676;26.348;2024-02-15T00:02:53;99034.66;;;8.29;75.63
34566;BME280;20803;42.676;26.348;2024-02-15T00:05:19;99042.16;;;8.29;76.49
34566;BME280;20803;42.676;26.348;2024-02-15T00:07:45;99031.13;;;8.36;77.03
34566;BME280;20803;42.676;26.348;2024-02-15T00:10:13;99034.63;;;8.26;77.86
34566;BME280;20803;42.676;26.348;2024-02-15T00:12:39;99027.59;;;8.39;75.54
34566;BME280;20803;42.676;26.348;2024-02-15T00:15:05;99034.56;;;8.11;77.40
34566;BME280;20803;42.676;26.348;2024-02-15T00:17:31;99038.97;;;8.20;78.13
34566;BME280;20803;42.676;26.348;2024-02-15T00:19:57;99044.88;;;8.11;77.42
34566;BME280;20803;42.676;26.348;2024-02-15T00:22:23;99045.66;;;8.19;76.09
34566;BME280;20803;42.676;26.348;2024-02-15T00:24:49;99044.53;;;8.23;77.22
34566;BME280;20803;42.676;26.348;2024-02-15T00:27:16;99039.75;;;8.24;77.73
34566;BME280;20803;42.676;26.348;2024-02-15T00:29:41;99042.94;;;8.26;77.76
34566;BME280;20803;42.676;26.348;2024-02-15T00:32:08;99041.81;;;8.34;75.96
34566;BME280;20803;42.676;26.348;2024-02-15T00:34:36;99037.91;;;8.45;74.81
34566;BME280;20803;42.676;26.348;2024-02-15T00:37:06;99049.78;;;8.49;75.82
34566;BME280;20803;42.676;26.348;2024-02-15T00:39:32;99038.72;;;8.60;75.51
34566;BME280;20803;42.676;26.348;2024-02-15T00:41:58;99039.56;;;8.75;74.00
34566;BME280;20803;42.676;26.348;2024-02-15T00:44:26;99043.16;;;8.86;72.75
34566;BME280;20803;42.676;26.348;2024-02-15T00:46:51;99043.19;;;8.93;70.79
34566;BME280;20803;42.676;26.348;2024-02-15T00:49:17;99037.25;;;8.94;68.96
34566;BME280;20803;42.676;26.348;2024-02-15T00:51:45;99038.41;;;8.97;68.52
34566;BME280;20803;42.676;26.348;2024-02-15T00:54:11;99040.41;;;8.93;69.47
34566;BME280;20803;42.676;26.348;2024-02-15T00:56:36;99031.72;;;9.02;68.99
34566;BME280;20803;42.676;26.348;2024-02-15T00:59:02;99026.16;;;8.91;66.78
34566;BME280;20803;42.676;26.348;2024-02-15T01:01:28;99020.16;;;8.64;66.99
34566;BME280;20803;42.676;26.348;2024-02-15T01:03:54;99023.34;;;8.73;67.31
34566;BME280;20803;42.676;26.348;2024-02-15T01:06:20;99016.63;;;8.81;67.30
34566;BME280;20803;42.676;26.348;2024-02-15T01:08:45;99021.78;;;8.76;67.37
34566;BME280;20803;42.676;26.348;2024-02-15T01:11:11;99007.94;;;8.86;67.15
34566;BME280;20803;42.676;26.348;2024-02-15T01:13:36;99013.06;;;8.70;66.88
34566;BME280;20803;42.676;26.348;2024-02-15T01:16:02;99006.69;;;8.59;67.15
34566;BME280;20803;42.676;26.348;2024-02-15T01:18:29;99013.28;;;8.26;68.66
34566;BME280;20803;42.676;26.348;2024-02-15T01:20:55;99005.84;;;8.41;68.53
34566;BME280;20803;42.676;26.348;2024-02-15T01:23:21;99005.44;;;8.39;68.71
34566;BME280;20803;42.676;26.348;2024-02-15T01:25:48;99005.88;;;8.55;68.75
34566;BME280;20803;42.676;26.348;2024-02-15T01:28:14;99011.03;;;8.60;68.41
34566;BME280;20803;42.676;26.348;2024-02-15T01:30:40;99009.06;;;8.53;68.55
34566;BME280;20803;42.676;26.348;2024-02-15T01:33:09;99004.69;;;8.49;68.99
34566;BME280;20803;42.676;26.348;2024-02-15T01:35:36;98996.72;;;8.33;68.81
34566;BME280;20803;42.676;26.348;2024-02-15T01:38:02;99001.84;;;8.31;68.82
34566;BME280;20803;42.676;26.348;2024-02-15T01:40:27;98998.44;;;7.83;72.86
34566;BME280;20803;42.676;26.348;2024-02-15T01:42:53;99006.78;;;7.87;73.36
34566;BME280;20803;42.676;26.348;2024-02-15T01:45:18;99011.66;;;8.11;72.52
34566;BME280;20803;42.676;26.348;2024-02-15T01:47:44;98999.72;;;8.00;72.20
34566;BME280;20803;42.676;26.348;2024-02-15T01:50:11;99005.66;;;8.02;70.33
34566;BME280;20803;42.676;26.348;2024-02-15T01:52:39;99018.41;;;8.17;68.42
34566;BME280;20803;42.676;26.348;2024-02-15T01:55:06;99005.34;;;8.21;69.12
34566;BME280;20803;42.676;26.348;2024-02-15T01:57:33;99001.63;;;7.85;71.04
34566;BME280;20803;42.676;26.348;2024-02-15T01:59:59;98990.16;;;7.83;70.52
34566;BME280;20803;42.676;26.348;2024-02-15T02:02:28;98998.16;;;8.02;69.07
34566;BME280;20803;42.676;26.348;2024-02-15T02:04:57;98984.72;;;8.11;69.11
34566;BME280;20803;42.676;26.348;2024-02-15T02:07:22;98994.50;;;7.81;71.03
34566;BME280;20803;42.676;26.348;2024-02-15T02:09:48;98994.78;;;7.65;72.92
34566;BME280;20803;42.676;26.348;2024-02-15T02:12:14;98992.13;;;7.83;72.34
34566;BME280;20803;42.676;26.348;2024-02-15T02:14:40;98984.66;;;7.87;71.56
34566;BME280;20803;42.676;26.348;2024-02-15T02:17:15;98988.13;;;7.73;69.99
34566;BME280;20803;42.676;26.348;2024-02-15T02:19:42;98993.28;;;7.78;70.54
34566;BME280;20803;42.676;26.348;2024-02-15T02:22:09;98988.50;;;7.75;71.64
34566;BME280;20803;42.676;26.348;2024-02-15T02:24:42;98996.47;;;7.87;70.96
34566;BME280;20803;42.676;26.348;2024-02-15T02:27:12;98995.44;;;7.44;71.42
34566;BME280;20803;42.676;26.348;2024-02-15T02:29:47;98985.94;;;7.42;72.89
34566;BME280;20803;42.676;26.348;2024-02-15T02:32:13;99000.22;;;7.51;72.89
34566;BME280;20803;42.676;26.348;2024-02-15T02:34:38;98984.47;;;7.58;72.35
34566;BME280;20803;42.676;26.348;2024-02-15T02:37:06;98993.19;;;7.60;72.20
34566;BME280;20803;42.676;26.348;2024-02-15T02:39:34;98991.66;;;7.70;71.57
34566;BME280;20803;42.676;26.348;2024-02-15T02:41:59;98986.19;;;7.81;70.99
34566;BME280;20803;42.676;26.348;2024-02-15T02:44:25;98969.84;;;7.54;72.03
34566;BME280;20803;42.676;26.348;2024-02-15T02:46:51;98964.56;;;7.35;73.92
34566;BME280;20803;42.676;26.348;2024-02-15T02:49:16;98973.78;;;7.57;72.88
34566;BME280;20803;42.676;26.348;2024-02-15T02:51:42;98955.66;;;7.63;71.42
34566;BME280;20803;42.676;26.348;2024-02-15T02:54:08;98973.63;;;7.32;73.20
34566;BME280;20803;42.676;26.348;2024-02-15T02:56:33;98971.28;;;7.34;71.99
34566;BME280;20803;42.676;26.348;2024-02-15T02:58:59;98968.50;;;7.30;72.99
34566;BME280;20803;42.676;26.348;2024-02-15T03:01:24;98977.84;;;7.12;74.18
34566;BME280;20803;42.676;26.348;2024-02-15T03:03:53;98982.66;;;7.22;73.39
34566;BME280;20803;42.676;26.348;2024-02-15T03:06:21;98988.44;;;7.06;74.23
34566;BME280;20803;42.676;26.348;2024-02-15T03:08:50;98975.03;;;7.08;74.62
34566;BME280;20803;42.676;26.348;2024-02-15T03:11:19;98977.72;;;6.98;76.00
34566;BME280;20803;42.676;26.348;2024-02-15T03:13:45;98972.31;;;7.15;74.51
34566;BME280;20803;42.676;26.348;2024-02-15T03:16:11;98973.84;;;7.06;73.83
34566;BME280;20803;42.676;26.348;2024-02-15T03:18:36;98975.00;;;7.05;74.63
34566;BME280;20803;42.676;26.348;2024-02-15T03:21:02;98975.88;;;7.16;74.18
34566;BME280;20803;42.676;26.348;2024-02-15T03:23:27;98977.00;;;7.08;74.58
34566;BME280;20803;42.676;26.348;2024-02-15T03:25:54;98982.63;;;7.18;74.16
34566;BME280;20803;42.676;26.348;2024-02-15T03:28:19;98985.69;;;7.10;73.31
34566;BME280;20803;42.676;26.348;2024-02-15T03:30:46;98986.88;;;7.09;73.70
34566;BME280;20803;42.676;26.348;2024-02-15T03:33:12;98987.31;;;7.14;73.69
34566;BME280;20803;42.676;26.348;2024-02-15T03:35:38;98990.50;;;7.16;73.13
34566;BME280;20803;42.676;26.348;2024-02-15T03:38:04;98988.22;;;7.25;73.12
34566;BME280;20803;42.676;26.348;2024-02-15T03:40:30;98981.25;;;6.95;73.26
34566;BME280;20803;42.676;26.348;2024-02-15T03:42:57;98978.53;;;7.02;74.11
34566;BME280;20803;42.676;26.348;2024-02-15T03:45:23;98976.25;;;7.11;73.76
34566;BME280;20803;42.676;26.348;2024-02-15T03:47:54;98971.25;;;7.30;73.20
34566;BME280;20803;42.676;26.348;2024-02-15T03:50:20;98969.81;;;7.51;71.33
34566;BME280;20803;42.676;26.348;2024-02-15T03:52:49;98957.34;;;7.16;72.12
34566;BME280;20803;42.676;26.348;2024-02-15T03:55:16;98967.47;;;7.02;72.97
34566;BME280;20803;42.676;26.348;2024-02-15T03:57:41;98961.28;;;7.15;73.16
34566;BME280;20803;42.676;26.348;2024-02-15T04:00:09;98957.03;;;7.32;71.91
34566;BME280;20803;42.676;26.348;2024-02-15T04:02:46;98967.41;;;7.42;71.70
34566;BME280;20803;42.676;26.348;2024-02-15T04:05:13;98976.44;;;7.36;72.05
34566;BME280;20803;42.676;26.348;2024-02-15T04:07:38;98970.34;;;7.16;73.45
34566;BME280;20803;42.676;26.348;2024-02-15T04:10:04;98983.44;;;7.19;74.08
34566;BME280;20803;42.676;26.348;2024-02-15T04:12:32;98982.09;;;7.02;74.86
34566;BME280;20803;42.676;26.348;2024-02-15T04:14:57;98980.03;;;6.92;76.54
34566;BME280;20803;42.676;26.348;2024-02-15T04:17:31;98980.53;;;7.01;76.74
34566;BME280;20803;42.676;26.348;2024-02-15T04:19:58;98992.09;;;7.17;76.11
34566;BME280;20803;42.676;26.348;2024-02-15T04:22:23;98990.91;;;7.18;75.43
34566;BME280;20803;42.676;26.348;2024-02-15T04:24:49;98986.56;;;7.17;75.78
34566;BME280;20803;42.676;26.348;2024-02-15T04:27:15;98981.03;;;7.17;75.87
34566;BME280;20803;42.676;26.348;2024-02-15T04:29:41;98979.94;;;7.29;74.90
34566;BME280;20803;42.676;26.348;2024-02-15T04:32:09;98979.94;;;7.29;74.17
34566;BME280;20803;42.676;26.348;2024-02-15T04:34:36;98990.56;;;7.23;75.02
34566;BME280;20803;42.676;26.348;2024-02-15T04:37:02;98969.31;;;7.38;74.17
34566;BME280;20803;42.676;26.348;2024-02-15T04:39:35;98970.56;;;7.44;73.67
34566;BME280;20803;42.676;26.348;2024-02-15T04:42:02;98985.53;;;7.40;73.34
34566;BME280;20803;42.676;26.348;2024-02-15T04:44:27;98984.97;;;7.20;75.03
34566;BME280;20803;42.676;26.348;2024-02-15T04:46:53;98980.00;;;7.36;74.29
34566;BME280;20803;42.676;26.348;2024-02-15T04:49:20;98977.97;;;7.33;74.00
34566;BME280;20803;42.676;26.348;2024-02-15T04:51:46;98969.69;;;7.29;72.95
34566;BME280;20803;42.676;26.348;2024-02-15T04:54:13;98989.16;;;7.47;72.82
34566;BME280;20803;42.676;26.348;2024-02-15T04:56:41;98990.00;;;7.55;72.68
34566;BME280;20803;42.676;26.348;2024-02-15T04:59:10;98983.06;;;7.27;74.28
34566;BME280;20803;42.676;26.348;2024-02-15T05:01:43;98986.88;;;7.09;76.76
34566;BME280;20803;42.676;26.348;2024-02-15T05:04:10;98980.22;;;7.13;75.61
34566;BME280;20803;42.676;26.348;2024-02-15T05:06:35;98995.66;;;7.18;76.02
34566;BME280;20803;42.676;26.348;2024-02-15T05:09:02;98988.47;;;7.10;76.46
34566;BME280;20803;42.676;26.348;2024-02-15T05:11:42;98997.19;;;7.12;76.70
34566;BME280;20803;42.676;26.348;2024-02-15T05:14:11;99003.88;;;7.11;76.10
34566;BME280;20803;42.676;26.348;2024-02-15T05:16:37;98987.72;;;7.13;75.98
34566;BME280;20803;42.676;26.348;2024-02-15T05:19:10;99014.13;;;7.10;76.56
34566;BME280;20803;42.676;26.348;2024-02-15T05:21:38;99010.69;;;7.24;75.62
34566;BME280;20803;42.676;26.348;2024-02-15T05:24:07;99013.84;;;7.26;75.02
34566;BME280;20803;42.676;26.348;2024-02-15T05:26:32;98998.91;;;7.30;75.00
34566;BME280;20803;42.676;26.348;2024-02-15T05:28:58;99020.28;;;7.41;74.07
34566;BME280;20803;42.676;26.348;2024-02-15T05:31:23;99000.94;;;7.41;73.84
34566;BME280;20803;42.676;26.348;2024-02-15T05:33:53;99018.13;;;7.13;75.73
34566;BME280;20803;42.676;26.348;2024-02-15T05:36:20;99032.47;;;7.32;75.68
34566;BME280;20803;42.676;26.348;2024-02-15T05:38:48;99022.50;;;7.21;75.06
34566;BME280;20803;42.676;26.348;2024-02-15T05:41:13;99019.50;;;6.92;77.48
34566;BME280;20803;42.676;26.348;2024-02-15T05:43:40;99036.59;;;7.05;76.59
34566;BME280;20803;42.676;26.348;2024-02-15T05:46:09;99021.97;;;7.01;77.39
34566;BME280;20803;42.676;26.348;2024-02-15T05:48:36;99028.22;;;6.95;78.75
34566;BME280;20803;42.676;26.348;2024-02-15T05:51:06;99033.09;;;7.12;78.05
34566;BME280;20803;42.676;26.348;2024-02-15T05:53:33;99044.25;;;7.22;76.37
34566;BME280;20803;42.676;26.348;2024-02-15T05:56:02;99039.94;;;7.25;75.68
34566;BME280;20803;42.676;26.348;2024-02-15T05:58:30;99051.06;;;7.36;74.83
34566;BME280;20803;42.676;26.348;2024-02-15T06:00:56;99062.25;;;7.50;73.90
34566;BME280;20803;42.676;26.348;2024-02-15T06:03:27;99053.59;;;7.55;74.14
34566;BME280;20803;42.676;26.348;2024-02-15T06:05:52;99057.75;;;7.31;75.53
34566;BME280;20803;42.676;26.348;2024-02-15T06:08:26;99050.47;;;7.12;77.11
34566;BME280;20803;42.676;26.348;2024-02-15T06:10:53;99070.47;;;7.43;76.11
34566;BME280;20803;42.676;26.348;2024-02-15T06:13:20;99059.00;;;7.41;75.29
34566;BME280;20803;42.676;26.348;2024-02-15T06:15:45;99062.19;;;7.43;75.25
34566;BME280;20803;42.676;26.348;2024-02-15T06:18:14;99068.88;;;7.42;73.70
34566;BME280;20803;42.676;26.348;2024-02-15T06:20:41;99075.94;;;7.36;74.65
34566;BME280;20803;42.676;26.348;2024-02-15T06:23:08;99078.72;;;7.39;74.46
34566;BME280;20803;42.676;26.348;2024-02-15T06:25:37;99083.28;;;7.17;75.84
34566;BME280;20803;42.676;26.348;2024-02-15T06:28:02;99086.13;;;7.28;75.34
34566;BME280;20803;42.676;26.348;2024-02-15T06:30:39;99101.47;;;7.66;74.05
34566;BME280;20803;42.676;26.348;2024-02-15T06:33:24;99108.75;;;7.88;72.10
34566;BME280;20803;42.676;26.348;2024-02-15T06:36:08;99094.09;;;7.81;72.04
34566;BME280;20803;42.676;26.348;2024-02-15T06:38:52;99092.16;;;7.88;71.48
34566;BME280;20803;42.676;26.348;2024-02-15T06:41:36;99104.91;;;7.49;73.39
34566;BME280;20803;42.676;26.348;2024-02-15T06:44:02;99106.78;;;7.41;74.92
34566;BME280;20803;42.676;26.348;2024-02-15T06:46:27;99106.50;;;7.50;75.39
34566;BME280;20803;42.676;26.348;2024-02-15T06:48:53;99098.84;;;7.36;75.45
34566;BME280;20803;42.676;26.348;2024-02-15T06:51:20;99085.28;;;7.20;76.57
34566;BME280;20803;42.676;26.348;2024-02-15T06:53:45;99094.00;;;7.22;77.31
34566;BME280;20803;42.676;26.348;2024-02-15T06:56:12;99090.47;;;7.25;76.74
34566;BME280;20803;42.676;26.348;2024-02-15T06:58:39;99084.91;;;7.22;77.30
34566;BME280;20803;42.676;26.348;2024-02-15T07:01:06;99088.16;;;7.31;76.83
34566;BME280;20803;42.676;26.348;2024-02-15T07:03:31;99096.97;;;7.47;76.46
34566;BME280;20803;42.676;26.348;2024-02-15T07:06:00;99095.13;;;7.62;75.26
34566;BME280;20803;42.676;26.348;2024-02-15T07:08:28;99084.09;;;7.65;74.43
34566;BME280;20803;42.676;26.348;2024-02-15T07:10:55;99093.19;;;7.69;73.92
34566;BME280;20803;42.676;26.348;2024-02-15T07:13:20;99090.41;;;7.66;73.93
34566;BME280;20803;42.676;26.348;2024-02-15T07:15:46;99102.34;;;7.77;73.65
34566;BME280;20803;42.676;26.348;2024-02-15T07:18:12;99091.66;;;7.72;73.93
34566;BME280;20803;42.676;26.348;2024-02-15T07:20:41;99103.94;;;7.82;74.54
34566;BME280;20803;42.676;26.348;2024-02-15T07:23:07;99083.94;;;8.02;73.22
34566;BME280;20803;42.676;26.348;2024-02-15T07:25:32;99069.69;;;7.97;72.29
34566;BME280;20803;42.676;26.348;2024-02-15T07:27:58;99077.88;;;7.79;73.22
34566;BME280;20803;42.676;26.348;2024-02-15T07:30:24;99079.59;;;8.01;73.26
34566;BME280;20803;42.676;26.348;2024-02-15T07:32:50;99070.19;;;8.24;72.06
34566;BME280;20803;42.676;26.348;2024-02-15T07:35:17;99080.16;;;8.32;71.48
34566;BME280;20803;42.676;26.348;2024-02-15T07:37:52;99083.28;;;8.23;69.93
34566;BME280;20803;42.676;26.348;2024-02-15T07:40:21;99080.06;;;8.18;70.47
34566;BME280;20803;42.676;26.348;2024-02-15T07:42:48;99085.91;;;8.02;72.02
34566;BME280;20803;42.676;26.348;2024-02-15T07:45:14;99092.78;;;8.26;72.31
34566;BME280;20803;42.676;26.348;2024-02-15T07:47:39;99094.09;;;8.46;69.95
34566;BME280;20803;42.676;26.348;2024-02-15T07:50:05;99094.16;;;8.64;69.54
34566;BME280;20803;42.676;26.348;2024-02-15T07:52:31;99113.84;;;8.44;68.85
34566;BME280;20803;42.676;26.348;2024-02-15T07:54:56;99108.38;;;8.55;68.40
34566;BME280;20803;42.676;26.348;2024-02-15T07:57:22;99106.00;;;8.61;67.30
34566;BME280;20803;42.676;26.348;2024-02-15T07:59:48;99109.88;;;8.35;67.09
34566;BME280;20803;42.676;26.348;2024-02-15T08:02:14;99101.88;;;8.23;68.37
34566;BME280;20803;42.676;26.348;2024-02-15T08:04:43;99096.28;;;8.19;68.17
34566;BME280;20803;42.676;26.348;2024-02-15T08:07:09;99100.72;;;8.31;68.20
34566;BME280;20803;42.676;26.348;2024-02-15T08:09:38;99105.13;;;8.39;66.91
34566;BME280;20803;42.676;26.348;2024-02-15T08:12:04;99105.94;;;8.43;67.13
34566;BME280;20803;42.676;26.348;2024-02-15T08:14:29;99103.13;;;8.36;66.81
34566;BME280;20803;42.676;26.348;2024-02-15T08:16:56;99102.78;;;8.41;67.67
34566;BME280;20803;42.676;26.348;2024-02-15T08:19:22;99094.44;;;8.37;67.58
34566;BME280;20803;42.676;26.348;2024-02-15T08:21:48;99098.81;;;8.38;67.37
34566;BME280;20803;42.676;26.348;2024-02-15T08:24:16;99101.88;;;8.30;66.92
34566;BME280;20803;42.676;26.348;2024-02-15T08:26:42;99095.53;;;8.26;67.95
34566;BME280;20803;42.676;26.348;2024-02-15T08:29:08;99086.81;;;8.20;68.15
34566;BME280;20803;42.676;26.348;2024-02-15T08:31:39;99088.41;;;8.21;67.95
34566;BME280;20803;42.676;26.348;2024-02-15T08:34:04;99095.19;;;8.31;68.63
34566;BME280;20803;42.676;26.348;2024-02-15T08:36:36;99085.34;;;8.37;67.22
34566;BME280;20803;42.676;26.348;2024-02-15T08:39:01;99094.97;;;8.64;65.27
34566;BME280;20803;42.676;26.348;2024-02-15T08:41:29;99106.44;;;8.73;63.53
34566;BME280;20803;42.676;26.348;2024-02-15T08:43:54;99102.53;;;8.81;62.83
34566;BME280;20803;42.676;26.348;2024-02-15T08:46:23;99102.56;;;8.92;62.35
34566;BME280;20803;42.676;26.348;2024-02-15T08:48:50;99096.22;;;8.91;62.36
34566;BME280;20803;42.676;26.348;2024-02-15T08:51:15;99099.00;;;8.91;62.62
34566;BME280;20803;42.676;26.348;2024-02-15T08:53:41;99097.00;;;8.92;61.90
34566;BME280;20803;42.676;26.348;2024-02-15T08:56:08;99102.88;;;8.73;63.48
34566;BME280;20803;42.676;26.348;2024-02-15T08:58:35;99109.63;;;8.75;64.16
34566;BME280;20803;42.676;26.348;2024-02-15T09:01:01;99102.50;;;8.74;63.51
34566;BME280;20803;42.676;26.348;2024-02-15T09:03:28;99097.03;;;8.88;62.57
34566;BME280;20803;42.676;26.348;2024-02-15T09:05:54;99101.38;;;8.93;62.71
34566;BME280;20803;42.676;26.348;2024-02-15T09:08:19;99104.13;;;8.82;61.96
34566;BME280;20803;42.676;26.348;2024-02-15T09:10:52;99107.66;;;8.79;63.43
34566;BME280;20803;42.676;26.348;2024-02-15T09:13:19;99098.97;;;8.77;63.69
34566;BME280;20803;42.676;26.348;2024-02-15T09:15:44;99099.31;;;8.72;64.62
34566;BME280;20803;42.676;26.348;2024-02-15T09:18:12;99103.34;;;8.82;63.54
34566;BME280;20803;42.676;26.348;2024-02-15T09:20:38;99097.34;;;8.73;64.07
34566;BME280;20803;42.676;26.348;2024-02-15T09:23:09;99085.53;;;8.93;63.69
34566;BME280;20803;42.676;26.348;2024-02-15T09:25:41;99079.22;;;8.93;63.37
34566;BME280;20803;42.676;26.348;2024-02-15T09:28:10;99083.59;;;9.01;62.92
34566;BME280;20803;42.676;26.348;2024-02-15T09:30:35;99081.25;;;9.14;62.27
34566;BME280;20803;42.676;26.348;2024-02-15T09:33:02;99084.34;;;8.87;62.30
34566;BME280;20803;42.676;26.348;2024-02-15T09:35:30;99076.88;;;9.02;61.28
34566;BME280;20803;42.676;26.348;2024-02-15T09:37:56;99081.22;;;9.17;61.37
34566;BME280;20803;42.676;26.348;2024-02-15T09:40:22;99080.78;;;8.98;60.76
34566;BME280;20803;42.676;26.348;2024-02-15T09:42:52;99080.03;;;9.08;61.69
34566;BME280;20803;42.676;26.348;2024-02-15T09:45:18;99067.75;;;9.16;60.48
34566;BME280;20803;42.676;26.348;2024-02-15T09:47:46;99066.59;;;9.24;60.65
34566;BME280;20803;42.676;26.348;2024-02-15T09:50:13;99080.84;;;9.47;60.48
34566;BME280;20803;42.676;26.348;2024-02-15T09:52:59;99065.00;;;9.55;60.22
34566;BME280;20803;42.676;26.348;2024-02-15T09:55:28;99056.28;;;9.67;59.67
34566;BME280;20803;42.676;26.348;2024-02-15T09:57:54;99071.34;;;9.73;59.14
34566;BME280;20803;42.676;26.348;2024-02-15T10:00:20;99070.13;;;9.99;58.50
34566;BME280;20803;42.676;26.348;2024-02-15T10:02:53;99064.16;;;10.11;56.92
34566;BME280;20803;42.676;26.348;2024-02-15T10:05:19;99068.19;;;9.74;59.02
34566;BME280;20803;42.676;26.348;2024-02-15T10:07:45;99071.31;;;9.84;59.76
34566;BME280;20803;42.676;26.348;2024-02-15T10:10:23;99066.16;;;10.00;58.21
34566;BME280;20803;42.676;26.348;2024-02-15T10:12:54;99059.03;;;9.77;58.13
34566;BME280;20803;42.676;26.348;2024-02-15T10:15:34;99062.22;;;9.94;57.28
34566;BME280;20803;42.676;26.348;2024-02-15T10:18:09;99061.03;;;9.88;57.05
34566;BME280;20803;42.676;26.348;2024-02-15T10:20:39;99054.25;;;10.17;56.74
34566;BME280;20803;42.676;26.348;2024-02-15T10:23:10;99062.50;;;10.31;55.85
34566;BME280;20803;42.676;26.348;2024-02-15T10:25:37;99060.06;;;10.51;55.95
34566;BME280;20803;42.676;26.348;2024-02-15T10:28:08;99062.38;;;10.70;55.94
34566;BME280;20803;42.676;26.348;2024-02-15T10:30:35;99062.16;;;11.09;54.15
34566;BME280;20803;42.676;26.348;2024-02-15T10:33:01;99047.50;;;10.98;53.64
34566;BME280;20803;42.676;26.348;2024-02-15T10:35:28;99052.56;;;10.48;53.78
34566;BME280;20803;42.676;26.348;2024-02-15T10:38:07;99069.28;;;10.27;54.22
34566;BME280;20803;42.676;26.348;2024-02-15T10:40:34;99062.03;;;10.50;54.16
34566;BME280;20803;42.676;26.348;2024-02-15T10:43:02;99075.13;;;10.61;54.46
34566;BME280;20803;42.676;26.348;2024-02-15T10:45:34;99073.09;;;10.65;54.52
34566;BME280;20803;42.676;26.348;2024-02-15T10:48:02;99070.28;;;10.79;54.44
34566;BME280;20803;42.676;26.348;2024-02-15T10:50:30;99059.41;;;10.98;54.05
34566;BME280;20803;42.676;26.348;2024-02-15T10:52:59;99074.03;;;11.13;54.27
34566;BME280;20803;42.676;26.348;2024-02-15T10:55:40;99079.50;;;11.27;52.42
34566;BME280;20803;42.676;26.348;2024-02-15T10:58:12;99063.16;;;11.33;52.75
34566;BME280;20803;42.676;26.348;2024-02-15T11:00:39;99069.13;;;11.31;52.13
34566;BME280;20803;42.676;26.348;2024-02-15T11:03:18;99067.94;;;11.29;52.53
34566;BME280;20803;42.676;26.348;2024-02-15T11:05:47;99069.50;;;11.37;52.11
34566;BME280;20803;42.676;26.348;2024-02-15T11:08:13;99076.41;;;11.15;52.51
34566;BME280;20803;42.676;26.348;2024-02-15T11:10:39;99076.44;;;11.08;52.54
34566;BME280;20803;42.676;26.348;2024-02-15T11:13:09;99084.88;;;10.93;53.38
34566;BME280;20803;42.676;26.348;2024-02-15T11:15:43;99071.56;;;10.49;52.90
34566;BME280;20803;42.676;26.348;2024-02-15T11:18:11;99064.09;;;10.43;54.56
34566;BME280;20803;42.676;26.348;2024-02-15T11:23:04;99063.22;;;10.60;54.84
34566;BME280;20803;42.676;26.348;2024-02-15T11:25:37;99069.59;;;10.50;54.91
34566;BME280;20803;42.676;26.348;2024-02-15T11:30:51;99065.63;;;10.51;55.35
34566;BME280;20803;42.676;26.348;2024-02-15T11:33:44;99066.06;;;10.39;55.50
34566;BME280;20803;42.676;26.348;2024-02-15T11:36:11;99062.94;;;10.19;56.34
34566;BME280;20803;42.676;26.348;2024-02-15T11:38:37;99065.69;;;10.33;55.63
34566;BME280;20803;42.676;26.348;2024-02-15T11:41:07;99066.84;;;10.46;55.38
34566;BME280;20803;42.676;26.348;2024-02-15T11:46:24;99053.41;;;10.27;55.14
34566;BME280;20803;42.676;26.348;2024-02-15T11:48:53;99067.34;;;9.99;55.93
34566;BME280;20803;42.676;26.348;2024-02-15T11:51:33;99057.38;;;10.19;55.62
34566;BME280;20803;42.676;26.348;2024-02-15T11:54:09;99057.00;;;10.24;55.22
34566;BME280;20803;42.676;26.348;2024-02-15T11:59:09;99049.78;;;10.41;55.14
34566;BME280;20803;42.676;26.348;2024-02-15T12:01:44;99050.13;;;10.50;54.72
34566;BME280;20803;42.676;26.348;2024-02-15T12:04:29;99049.41;;;10.42;54.97
34566;BME280;20803;42.676;26.348;2024-02-15T12:07:15;99045.34;;;10.57;54.60
34566;BME280;20803;42.676;26.348;2024-02-15T12:09:59;99046.88;;;10.73;53.84
34566;BME280;20803;42.676;26.348;2024-02-15T12:12:53;99042.41;;;10.86;53.23
34566;BME280;20803;42.676;26.348;2024-02-15T12:15:37;99045.97;;;10.90;53.59
34566;BME280;20803;42.676;26.348;2024-02-15T12:18:21;99036.56;;;10.70;54.22
34566;BME280;20803;42.676;26.348;2024-02-15T12:21:06;99035.66;;;10.87;54.33
34566;BME280;20803;42.676;26.348;2024-02-15T12:23:32;99041.09;;;11.05;53.77
34566;BME280;20803;42.676;26.348;2024-02-15T12:26:01;99043.75;;;11.26;53.73
34566;BME280;20803;42.676;26.348;2024-02-15T12:28:29;99031.72;;;11.36;52.10
34566;BME280;20803;42.676;26.348;2024-02-15T12:30:55;99039.78;;;11.27;52.42
34566;BME280;20803;42.676;26.348;2024-02-15T12:33:22;99032.13;;;11.34;52.38
34566;BME280;20803;42.676;26.348;2024-02-15T12:35:48;99035.31;;;11.36;52.13
34566;BME280;20803;42.676;26.348;2024-02-15T12:38:15;99041.31;;;11.31;52.68
34566;BME280;20803;42.676;26.348;2024-02-15T12:40:42;99035.06;;;11.17;52.08
34566;BME280;20803;42.676;26.348;2024-02-15T12:43:10;99047.34;;;10.61;53.56
34566;BME280;20803;42.676;26.348;2024-02-15T12:45:38;99035.38;;;10.64;53.75
34566;BME280;20803;42.676;26.348;2024-02-15T12:48:05;99037.41;;;10.60;54.51
34566;BME280;20803;42.676;26.348;2024-02-15T12:50:32;99038.56;;;10.62;54.79
34566;BME280;20803;42.676;26.348;2024-02-15T12:52:58;99033.84;;;10.55;55.19
34566;BME280;20803;42.676;26.348;2024-02-15T12:55:37;99030.69;;;10.53;55.75
34566;BME280;20803;42.676;26.348;2024-02-15T12:58:12;99036.22;;;10.61;56.15
34566;BME280;20803;42.676;26.348;2024-02-15T13:00:40;99040.94;;;10.67;55.36
34566;BME280;20803;42.676;26.348;2024-02-15T13:03:06;99022.66;;;10.70;55.11
34566;BME280;20803;42.676;26.348;2024-02-15T13:05:36;99041.31;;;10.73;55.36
34566;BME280;20803;42.676;26.348;2024-02-15T13:08:02;99035.00;;;10.62;55.58
34566;BME280;20803;42.676;26.348;2024-02-15T13:10:28;99029.78;;;10.74;55.76
34566;BME280;20803;42.676;26.348;2024-02-15T13:12:55;99032.94;;;10.76;55.89